createdAt,value
2022-11-17T00:02:00.814Z,5.07
2022-11-17T00:04:29.883Z,6.73
2022-11-17T00:06:58.233Z,6.43
2022-11-17T00:09:25.944Z,5.40
2022-11-17T00:12:11.247Z,6.47
2022-11-17T00:14:41.283Z,5.53
2022-11-17T00:17:10.610Z,6.10
2022-11-17T00:19:56.203Z,5.40
2022-11-17T00:22:24.136Z,6.47
2022-11-17T00:24:52.117Z,5.10
2022-11-17T00:27:19.730Z,5.30
2022-11-17T00:29:48.704Z,4.50
2022-11-17T00:32:36.054Z,5.23
2022-11-17T00:35:04.413Z,5.57
2022-11-17T00:37:34.849Z,6.10
2022-11-17T00:40:02.536Z,5.27
2022-11-17T00:42:30.137Z,5.60
2022-11-17T00:44:59.042Z,7.90
2022-11-17T00:47:26.643Z,5.17
2022-11-17T00:49:54.260Z,5.23
2022-11-17T00:52:21.919Z,5.27
2022-11-17T00:54:49.690Z,5.73
2022-11-17T00:57:17.311Z,7.20
2022-11-17T00:59:44.903Z,6.33
2022-11-17T01:02:14.010Z,7.03
2022-11-17T01:04:41.648Z,4.57
2022-11-17T01:07:09.283Z,6.90
2022-11-17T01:09:37.199Z,6.13
2022-11-17T01:12:04.945Z,5.77
2022-11-17T01:14:32.805Z,6.20
2022-11-17T01:17:00.391Z,5.90
2022-11-17T01:19:29.590Z,6.10
2022-11-17T01:21:57.234Z,6.70
2022-11-17T01:24:24.837Z,8.07
2022-11-17T01:26:52.431Z,7.33
2022-11-17T01:29:20.056Z,7.37
2022-11-17T01:31:51.347Z,7.77
2022-11-17T01:34:19.059Z,6.40
2022-11-17T01:37:05.435Z,6.07
2022-11-17T01:39:33.094Z,7.43
2022-11-17T01:42:04.489Z,7.07
2022-11-17T01:45:06.010Z,7.10
2022-11-17T01:47:39.743Z,8.80
2022-11-17T01:50:12.646Z,7.40
2022-11-17T01:52:42.186Z,6.10
2022-11-17T01:55:10.811Z,6.37
2022-11-17T01:57:43.192Z,7.30
2022-11-17T02:00:12.201Z,7.00
2022-11-17T02:02:40.925Z,7.33
2022-11-17T02:05:30.677Z,6.27
2022-11-17T02:08:02.373Z,10.40
2022-11-17T02:10:31.603Z,8.30
2022-11-17T02:13:00.021Z,9.20
2022-11-17T02:15:27.941Z,7.47
2022-11-17T02:17:55.646Z,6.30
2022-11-17T02:20:47.569Z,7.90
2022-11-17T02:23:51.146Z,7.67
2022-11-17T02:26:51.076Z,6.33
2022-11-17T02:29:23.468Z,6.43
2022-11-17T02:31:54.690Z,6.73
2022-11-17T02:34:35.074Z,7.73
2022-11-17T02:37:09.292Z,7.50
2022-11-17T02:39:41.018Z,6.60
2022-11-17T02:42:11.536Z,5.77
2022-11-17T02:44:44.508Z,6.20
2022-11-17T02:47:15.221Z,5.77
2022-11-17T02:49:47.201Z,6.73
2022-11-17T02:52:16.486Z,7.03
2022-11-17T02:54:44.124Z,7.97
2022-11-17T02:57:29.727Z,5.83
2022-11-17T02:59:59.233Z,10.23
2022-11-17T03:02:51.847Z,6.63
2022-11-17T03:05:24.342Z,6.27
2022-11-17T03:08:06.561Z,8.17
2022-11-17T03:10:43.002Z,7.60
2022-11-17T03:13:14.308Z,6.87
2022-11-17T03:15:50.346Z,7.40
2022-11-17T03:18:20.735Z,7.67
2022-11-17T03:20:51.372Z,7.10
2022-11-17T03:23:20.810Z,6.37
2022-11-17T03:25:51.417Z,6.33
2022-11-17T03:28:20.579Z,5.23
2022-11-17T03:30:50.486Z,8.80
2022-11-17T03:33:20.489Z,6.50
2022-11-17T03:35:52.265Z,7.83
2022-11-17T03:38:21.766Z,6.20
2022-11-17T03:40:50.377Z,6.70
2022-11-17T03:43:19.730Z,6.10
2022-11-17T03:45:50.776Z,6.57
2022-11-17T03:48:22.348Z,7.20
2022-11-17T03:50:54.054Z,7.30
2022-11-17T03:53:21.765Z,6.60
2022-11-17T03:55:56.084Z,6.03
2022-11-17T03:58:26.034Z,6.03
2022-11-17T04:00:57.377Z,8.60
2022-11-17T04:03:24.992Z,12.50
2022-11-17T04:05:52.625Z,6.77
2022-11-17T04:08:22.751Z,7.57
2022-11-17T04:11:04.267Z,6.40
2022-11-17T04:13:49.510Z,6.77
2022-11-17T04:16:18.462Z,7.43
2022-11-17T04:18:46.131Z,7.70
2022-11-17T04:21:13.731Z,8.67
2022-11-17T04:23:41.310Z,8.50
2022-11-17T04:26:28.706Z,8.10
2022-11-17T04:28:56.446Z,6.90
2022-11-17T04:31:26.674Z,6.63
2022-11-17T04:33:55.685Z,7.73
2022-11-17T04:36:24.780Z,6.77
2022-11-17T04:38:53.545Z,7.37
2022-11-17T04:41:39.699Z,9.83
2022-11-17T04:44:08.421Z,4.90
2022-11-17T04:46:38.502Z,6.53
2022-11-17T04:49:06.713Z,6.77
2022-11-17T04:51:35.256Z,7.90
2022-11-17T04:54:03.064Z,7.13
2022-11-17T04:56:30.656Z,7.30
2022-11-17T04:58:58.441Z,9.10
2022-11-17T05:01:28.784Z,8.20
2022-11-17T05:03:59.094Z,7.20
2022-11-17T05:06:28.485Z,6.30
2022-11-17T05:08:57.493Z,8.50
2022-11-17T05:11:44.028Z,7.57
2022-11-17T05:14:12.106Z,8.23
2022-11-17T05:16:57.388Z,8.47
2022-11-17T05:19:27.715Z,7.17
2022-11-17T05:21:55.793Z,11.90
2022-11-17T05:24:22.475Z,7.80
2022-11-17T05:26:51.868Z,9.60
2022-11-17T05:29:24.501Z,8.60
2022-11-17T05:31:52.189Z,9.20
2022-11-17T05:34:23.357Z,10.60
2022-11-17T05:36:53.108Z,8.03
2022-11-17T05:39:20.956Z,8.53
2022-11-17T05:41:49.191Z,8.60
2022-11-17T05:44:16.956Z,9.97
2022-11-17T05:46:45.112Z,10.70
2022-11-17T05:49:13.400Z,9.93
2022-11-17T05:51:41.044Z,9.70
2022-11-17T05:54:11.332Z,9.83
2022-11-17T05:56:41.390Z,8.47
2022-11-17T05:59:17.644Z,9.53
2022-11-17T06:01:48.495Z,8.87
2022-11-17T06:04:18.304Z,10.30
2022-11-17T06:06:46.195Z,9.70
2022-11-17T06:09:15.839Z,10.47
2022-11-17T06:11:43.672Z,10.60
2022-11-17T06:14:11.576Z,8.57
2022-11-17T06:16:43.864Z,11.00
2022-11-17T06:19:20.272Z,10.93
2022-11-17T06:22:10.988Z,9.40
2022-11-17T06:24:42.992Z,8.90
2022-11-17T06:27:13.628Z,12.30
2022-11-17T06:29:44.828Z,12.33
2022-11-17T06:32:13.856Z,9.43
2022-11-17T06:34:41.783Z,12.00
2022-11-17T06:37:11.709Z,9.80
2022-11-17T06:39:51.571Z,10.20
2022-11-17T06:42:42.879Z,9.17
2022-11-17T06:45:12.190Z,11.37
2022-11-17T06:47:40.361Z,11.20
2022-11-17T06:50:08.981Z,10.43
2022-11-17T06:52:36.870Z,8.87
2022-11-17T06:55:09.407Z,9.20
2022-11-17T06:57:37.076Z,10.83
2022-11-17T07:00:08.651Z,8.03
2022-11-17T07:02:39.648Z,17.97
2022-11-17T07:05:07.744Z,7.40
2022-11-17T07:07:36.415Z,12.00
2022-11-17T07:10:16.199Z,10.33
2022-11-17T07:12:43.906Z,10.03
2022-11-17T07:15:12.230Z,9.60
2022-11-17T07:17:40.787Z,9.40
2022-11-17T07:20:11.157Z,9.57
2022-11-17T07:22:42.142Z,11.37
2022-11-17T07:25:19.612Z,10.93
2022-11-17T07:27:52.010Z,9.70
2022-11-17T07:30:22.494Z,10.80
2022-11-17T07:32:54.509Z,10.83
2022-11-17T07:35:36.241Z,9.83
2022-11-17T07:38:07.482Z,8.73
2022-11-17T07:40:48.363Z,12.00
2022-11-17T07:46:43.625Z,8.60
2022-11-17T07:49:11.342Z,9.87
2022-11-17T07:51:42.707Z,9.40
2022-11-17T07:54:13.169Z,12.57
2022-11-17T07:56:53.591Z,6.60
2022-11-17T07:59:49.880Z,9.60
2022-11-17T08:05:58.130Z,16.20
2022-11-17T08:08:25.827Z,13.43
2022-11-17T08:10:55.967Z,11.50
2022-11-17T08:13:25.446Z,9.60
2022-11-17T08:15:57.152Z,6.97
2022-11-17T08:18:40.930Z,10.40
2022-11-17T08:21:15.704Z,9.47
2022-11-17T08:37:24.350Z,10.07
2022-11-17T08:39:53.692Z,9.43
2022-11-17T08:42:21.483Z,9.07
2022-11-17T08:44:49.252Z,10.50
2022-11-17T08:47:17.112Z,8.73
2022-11-17T08:49:44.746Z,9.80
2022-11-17T08:52:12.553Z,12.10
2022-11-17T08:54:40.408Z,10.57
2022-11-17T08:57:09.597Z,9.77
2022-11-17T08:59:37.399Z,10.70
2022-11-17T09:02:06.174Z,9.10
2022-11-17T09:04:33.811Z,15.90
2022-11-17T09:07:02.110Z,8.70
2022-11-17T09:09:31.574Z,11.63
2022-11-17T09:11:59.703Z,9.20
2022-11-17T09:14:28.769Z,11.63
2022-11-17T09:16:56.393Z,10.00
2022-11-17T09:19:24.144Z,9.50
2022-11-17T09:21:51.854Z,12.83
2022-11-17T09:24:19.493Z,11.97
2022-11-17T09:26:47.277Z,10.13
2022-11-17T09:29:15.191Z,13.80
2022-11-17T09:31:44.368Z,10.10
2022-11-17T09:34:12.141Z,10.23
2022-11-17T09:36:39.899Z,11.03
2022-11-17T09:39:07.574Z,10.70
2022-11-17T09:41:39.653Z,10.97
2022-11-17T09:44:14.736Z,11.53
2022-11-17T09:46:53.143Z,10.23
2022-11-17T09:49:30.289Z,10.80
2022-11-17T09:52:01.608Z,11.93
2022-11-17T09:54:57.281Z,10.13
2022-11-17T09:57:42.396Z,11.70
2022-11-17T10:00:16.119Z,12.67
2022-11-17T10:02:46.219Z,11.60
2022-11-17T10:05:15.882Z,11.90
2022-11-17T10:07:48.279Z,13.77
2022-11-17T10:10:19.787Z,12.23
2022-11-17T10:12:50.587Z,13.70
2022-11-17T10:15:22.988Z,10.43
2022-11-17T10:17:52.965Z,12.97
2022-11-17T10:20:21.042Z,12.67
2022-11-17T10:22:49.513Z,10.60
2022-11-17T10:25:37.634Z,11.83
2022-11-17T10:28:06.944Z,14.20
2022-11-17T10:30:34.780Z,16.37
2022-11-17T10:33:05.672Z,16.80
2022-11-17T10:35:34.740Z,11.97
2022-11-17T10:38:05.133Z,13.30
2022-11-17T10:40:34.709Z,14.00
2022-11-17T10:43:17.759Z,13.33
2022-11-17T10:45:46.225Z,15.40
2022-11-17T10:48:26.701Z,12.90
2022-11-17T10:50:56.757Z,12.40
2022-11-17T10:53:43.008Z,12.47
2022-11-17T10:56:14.875Z,15.90
2022-11-17T10:59:05.231Z,13.10
2022-11-17T11:01:35.209Z,13.17
2022-11-17T11:04:06.562Z,14.57
2022-11-17T11:06:35.302Z,13.63
2022-11-17T11:09:05.117Z,14.17
2022-11-17T11:11:43.521Z,16.73
2022-11-17T11:14:18.650Z,14.10
2022-11-17T11:16:48.536Z,13.70
2022-11-17T11:19:19.304Z,16.10
2022-11-17T11:22:01.069Z,16.63
2022-11-17T11:24:33.204Z,13.97
2022-11-17T11:27:05.092Z,16.90
2022-11-17T11:29:42.265Z,15.93
2022-11-17T11:32:18.675Z,13.83
2022-11-17T11:34:58.072Z,13.47
2022-11-17T11:37:31.515Z,14.43
2022-11-17T11:40:04.651Z,15.10
2022-11-17T11:42:48.940Z,14.40
2022-11-17T11:45:24.177Z,15.33
2022-11-17T11:48:14.600Z,13.80
2022-11-17T11:50:52.524Z,12.03
2022-11-17T11:53:26.094Z,12.00
2022-11-17T11:56:03.331Z,11.67
2022-11-17T11:58:30.939Z,14.17
2022-11-17T12:01:05.854Z,13.80
2022-11-17T12:03:36.649Z,13.47
2022-11-17T12:06:31.865Z,13.03
2022-11-17T12:09:10.649Z,13.93
2022-11-17T12:11:57.615Z,11.70
2022-11-17T12:14:25.437Z,13.53
2022-11-17T12:17:01.639Z,15.60
2022-11-17T12:19:51.327Z,13.23
2022-11-17T12:22:39.445Z,13.70
2022-11-17T12:25:17.051Z,17.43
2022-11-17T12:27:45.945Z,15.57
2022-11-17T12:30:56.130Z,19.93
2022-11-17T12:33:24.505Z,18.60
2022-11-17T12:36:17.039Z,19.23
2022-11-17T12:38:46.632Z,13.60
2022-11-17T12:41:14.584Z,19.60
2022-11-17T12:43:42.489Z,27.30
2022-11-17T12:46:17.995Z,17.10
2022-11-17T12:48:50.354Z,16.17
2022-11-17T12:51:26.536Z,16.07
2022-11-17T12:54:02.284Z,16.57
2022-11-17T12:56:46.051Z,14.80
2022-11-17T12:59:33.417Z,12.80
2022-11-17T13:02:05.701Z,16.57
2022-11-17T13:04:36.957Z,14.90
2022-11-17T13:07:06.645Z,21.83
2022-11-17T13:09:36.712Z,19.07
2022-11-17T13:12:06.676Z,20.50
2022-11-17T13:14:35.560Z,15.37
2022-11-17T13:17:03.574Z,16.53
2022-11-17T13:19:34.448Z,19.30
2022-11-17T13:22:04.120Z,17.90
2022-11-17T13:24:33.530Z,16.80
2022-11-17T13:27:07.243Z,15.03
2022-11-17T13:29:35.288Z,20.83
2022-11-17T13:32:12.328Z,16.10
2022-11-17T13:34:47.360Z,16.10
2022-11-17T13:37:17.785Z,17.17
2022-11-17T13:39:55.588Z,17.23
2022-11-17T13:42:25.937Z,17.87
2022-11-17T13:44:54.668Z,21.60
2022-11-17T13:47:28.216Z,19.57
2022-11-17T13:49:55.896Z,15.77
2022-11-17T13:52:40.561Z,18.23
2022-11-17T13:55:17.171Z,19.57
2022-11-17T13:57:54.931Z,19.17
2022-11-17T14:00:23.145Z,18.80
2022-11-17T14:02:54.621Z,21.10
2022-11-17T14:05:25.388Z,19.97
2022-11-17T14:07:54.514Z,16.80
2022-11-17T14:10:31.600Z,16.70
2022-11-17T14:13:30.034Z,19.07
2022-11-17T14:16:00.542Z,15.77
2022-11-17T14:18:31.045Z,22.80
2022-11-17T14:21:09.390Z,14.80
2022-11-17T14:23:37.262Z,17.23
2022-11-17T14:26:05.287Z,19.70
2022-11-17T14:28:34.294Z,20.27
2022-11-17T14:31:01.931Z,18.50
2022-11-17T14:33:29.509Z,17.40
2022-11-17T14:35:59.497Z,15.57
2022-11-17T14:38:27.124Z,18.30
2022-11-17T14:40:55.005Z,17.13
2022-11-17T14:43:23.222Z,15.50
2022-11-17T14:45:52.143Z,22.30
2022-11-17T14:48:20.258Z,13.97
2022-11-17T14:50:48.211Z,15.63
2022-11-17T14:53:16.195Z,16.53
2022-11-17T14:55:43.768Z,14.57
2022-11-17T14:58:11.441Z,17.07
2022-11-17T15:00:39.031Z,15.60
2022-11-17T15:03:08.134Z,15.47
2022-11-17T15:05:36.364Z,15.03
2022-11-17T15:08:04.873Z,16.77
2022-11-17T15:10:32.934Z,13.87
2022-11-17T15:13:00.533Z,13.60
2022-11-17T15:15:28.085Z,13.93
2022-11-17T15:17:55.834Z,16.77
2022-11-17T15:20:24.831Z,14.83
2022-11-17T15:22:52.645Z,16.63
2022-11-17T15:25:20.245Z,17.87
2022-11-17T15:27:48.200Z,12.93
2022-11-17T15:30:15.997Z,13.83
2022-11-17T15:32:43.706Z,14.20
2022-11-17T15:35:11.573Z,13.87
2022-11-17T15:37:40.501Z,14.77
2022-11-17T15:40:09.198Z,15.03
2022-11-17T15:42:36.835Z,17.47
2022-11-17T15:45:05.054Z,13.20
2022-11-17T15:47:33.109Z,18.63
2022-11-17T15:50:00.772Z,15.83
2022-11-17T15:52:48.732Z,13.67
2022-11-17T15:55:17.470Z,15.57
2022-11-17T15:57:45.064Z,12.00
2022-11-17T16:00:14.476Z,16.83
2022-11-17T16:02:42.253Z,14.23
2022-11-17T16:05:10.247Z,17.13
2022-11-17T16:07:38.048Z,16.10
2022-11-17T16:10:06.393Z,14.70
2022-11-17T16:12:35.309Z,14.47
2022-11-17T16:15:02.875Z,16.20
2022-11-17T16:17:30.555Z,13.43
2022-11-17T16:19:58.218Z,15.10
2022-11-17T16:22:25.902Z,12.80
2022-11-17T16:24:53.464Z,14.17
2022-11-17T16:27:21.023Z,15.20
2022-11-17T16:29:49.933Z,14.53
2022-11-17T16:32:17.704Z,13.20
2022-11-17T16:34:48.906Z,13.70
2022-11-17T16:37:16.875Z,12.50
2022-11-17T16:39:44.424Z,12.50
2022-11-17T16:42:12.091Z,16.90
2022-11-17T16:44:39.693Z,14.10
2022-11-17T16:47:08.730Z,12.77
2022-11-17T16:49:36.793Z,13.07
2022-11-17T16:52:04.355Z,13.80
2022-11-17T16:54:31.937Z,17.33
2022-11-17T16:56:59.482Z,15.50
2022-11-17T16:59:27.072Z,14.37
2022-11-17T17:01:54.681Z,13.17
2022-11-17T17:04:23.607Z,13.77
2022-11-17T17:06:51.193Z,15.53
2022-11-17T17:09:24.745Z,13.50
2022-11-17T17:11:55.127Z,16.87
2022-11-17T17:14:22.769Z,12.93
2022-11-17T17:16:50.735Z,13.87
2022-11-17T17:19:18.641Z,13.50
2022-11-17T17:21:48.296Z,18.30
2022-11-17T17:24:16.243Z,14.13
2022-11-17T17:26:47.931Z,17.10
2022-11-17T17:29:16.089Z,12.90
2022-11-17T17:31:44.232Z,14.63
2022-11-17T17:34:13.543Z,14.60
2022-11-17T17:36:41.442Z,16.97
2022-11-17T17:39:15.160Z,13.70
2022-11-17T17:41:44.308Z,13.87
2022-11-17T17:44:16.273Z,14.67
2022-11-17T17:46:44.467Z,13.73
2022-11-17T17:49:12.288Z,16.50
2022-11-17T17:51:42.243Z,17.20
2022-11-17T17:54:17.024Z,15.43
2022-11-17T17:56:44.776Z,13.00
2022-11-17T17:59:13.227Z,15.53
2022-11-17T18:01:42.164Z,17.43
2022-11-17T18:04:15.331Z,13.77
2022-11-17T18:06:46.001Z,14.57
2022-11-17T18:09:18.722Z,14.83
2022-11-17T18:11:49.443Z,13.17
2022-11-17T18:14:20.319Z,15.10
2022-11-17T18:16:48.078Z,16.23
2022-11-17T18:19:16.667Z,13.67
2022-11-17T18:21:44.826Z,15.00
2022-11-17T18:24:13.365Z,12.93
2022-11-17T18:26:42.406Z,12.77
2022-11-17T18:29:14.809Z,14.50
2022-11-17T18:31:43.416Z,13.47
2022-11-17T18:34:15.456Z,15.13
2022-11-17T18:36:43.292Z,19.10
2022-11-17T18:39:11.025Z,17.60
2022-11-17T18:41:38.829Z,21.63
2022-11-17T18:44:07.820Z,12.30
2022-11-17T18:46:35.510Z,15.40
2022-11-17T18:49:03.168Z,18.43
2022-11-17T18:51:32.257Z,16.70
2022-11-17T18:54:00.902Z,15.60
2022-11-17T18:56:30.766Z,18.07
2022-11-17T18:58:58.317Z,17.77
2022-11-17T19:01:28.815Z,20.80
2022-11-17T19:03:57.814Z,17.67
2022-11-17T19:06:26.164Z,20.83
2022-11-17T19:08:54.158Z,16.20
2022-11-17T19:11:23.187Z,17.73
2022-11-17T19:13:52.275Z,17.77
2022-11-17T19:16:21.540Z,16.20
2022-11-17T19:18:52.601Z,18.17
2022-11-17T19:21:21.472Z,18.10
2022-11-17T19:23:52.168Z,16.40
2022-11-17T19:26:21.136Z,17.37
2022-11-17T19:28:49.089Z,15.87
2022-11-17T19:31:18.325Z,18.90
2022-11-17T19:33:46.944Z,11.73
2022-11-17T19:36:17.361Z,14.83
2022-11-17T19:38:45.796Z,16.30
2022-11-17T19:41:15.086Z,15.47
2022-11-17T19:43:45.351Z,12.50
2022-11-17T19:46:14.535Z,16.00
2022-11-17T19:48:42.945Z,14.63
2022-11-17T19:51:18.354Z,14.37
2022-11-17T19:53:45.943Z,16.20
2022-11-17T19:56:13.824Z,13.70
2022-11-17T19:58:41.936Z,15.60
2022-11-17T20:01:11.747Z,16.90
2022-11-17T20:03:39.451Z,16.87
2022-11-17T20:06:08.263Z,14.50
2022-11-17T20:08:37.239Z,16.37
2022-11-17T20:11:06.512Z,15.60
2022-11-17T20:13:34.511Z,13.90
2022-11-17T20:16:06.193Z,12.80
2022-11-17T20:18:36.551Z,13.93
2022-11-17T20:21:05.151Z,13.57
2022-11-17T20:23:33.771Z,15.50
2022-11-17T20:26:05.280Z,21.20
2022-11-17T20:28:33.776Z,14.27
2022-11-17T20:31:06.645Z,13.60
2022-11-17T20:33:34.796Z,14.03
2022-11-17T20:36:02.395Z,16.10
2022-11-17T20:38:29.959Z,16.23
2022-11-17T20:40:58.643Z,13.50
2022-11-17T20:43:27.945Z,14.47
2022-11-17T20:45:55.854Z,16.10
2022-11-17T20:48:24.035Z,18.23
2022-11-17T20:50:58.533Z,17.87
2022-11-17T20:53:26.387Z,15.10
2022-11-17T20:55:55.962Z,19.00
2022-11-17T20:58:23.658Z,17.03
2022-11-17T21:00:52.866Z,13.37
2022-11-17T21:03:20.896Z,13.93
2022-11-17T21:05:58.376Z,17.73
2022-11-17T21:08:27.624Z,18.83
2022-11-17T21:10:56.209Z,16.20
2022-11-17T21:13:24.169Z,16.37
2022-11-17T21:16:04.822Z,19.07
2022-11-17T21:18:32.639Z,19.50
2022-11-17T21:21:01.537Z,16.30
2022-11-17T21:23:29.546Z,16.50
2022-11-17T21:25:57.119Z,16.77
2022-11-17T21:28:24.771Z,17.60
2022-11-17T21:30:52.325Z,17.50
2022-11-17T21:33:21.430Z,17.13
2022-11-17T21:35:49.159Z,17.50
2022-11-17T21:38:17.103Z,16.77
2022-11-17T21:40:44.706Z,18.90
2022-11-17T21:43:12.514Z,15.83
2022-11-17T21:45:40.183Z,17.43
2022-11-17T21:48:07.942Z,19.13
2022-11-17T21:50:37.274Z,16.60
2022-11-17T21:53:05.230Z,18.83
2022-11-17T21:55:33.125Z,22.43
2022-11-17T21:58:00.722Z,21.67
2022-11-17T22:00:29.506Z,19.00
2022-11-17T22:02:57.061Z,19.93
2022-11-17T22:05:24.726Z,18.30
2022-11-17T22:07:53.732Z,17.60
2022-11-17T22:10:21.346Z,22.27
2022-11-17T22:12:48.936Z,20.03
2022-11-17T22:15:16.700Z,20.17
2022-11-17T22:17:44.293Z,20.10
2022-11-17T22:20:11.906Z,20.73
2022-11-17T22:22:39.460Z,25.53
2022-11-17T22:25:37.601Z,23.23
2022-11-17T22:27:56.834Z,21.90
2022-11-17T22:30:24.448Z,21.47
2022-11-17T22:32:52.123Z,23.17
2022-11-17T22:35:19.921Z,26.60
2022-11-17T22:37:47.490Z,22.20
2022-11-17T22:40:16.914Z,23.37
2022-11-17T22:42:44.714Z,20.57
2022-11-17T22:45:12.289Z,21.67
2022-11-17T22:47:42.128Z,24.97
2022-11-17T22:50:11.017Z,20.83
2022-11-17T22:52:38.672Z,23.60
2022-11-17T22:55:06.887Z,27.33
2022-11-17T22:57:35.849Z,20.40
2022-11-17T23:00:03.554Z,23.70
2022-11-17T23:02:31.138Z,21.30
2022-11-17T23:04:58.722Z,21.50
2022-11-17T23:07:26.410Z,21.40
2022-11-17T23:09:54.146Z,24.93
2022-11-17T23:12:21.806Z,22.20
2022-11-17T23:14:50.712Z,24.20
2022-11-17T23:17:19.561Z,22.13
2022-11-17T23:19:47.191Z,22.93
2022-11-17T23:22:14.747Z,21.70
2022-11-17T23:24:42.375Z,22.60
2022-11-17T23:27:10.068Z,21.87
2022-11-17T23:29:37.579Z,20.67
2022-11-17T23:32:06.692Z,24.70
2022-11-17T23:34:35.947Z,23.40
2022-11-17T23:37:04.214Z,21.10
2022-11-17T23:39:32.382Z,25.90
2022-11-17T23:41:59.893Z,23.73
2022-11-17T23:44:27.403Z,26.03
2022-11-17T23:46:55.462Z,26.73
2022-11-17T23:49:24.329Z,23.23
2022-11-17T23:51:52.551Z,21.00
2022-11-17T23:54:20.158Z,21.60
2022-11-17T23:56:50.405Z,22.70
2022-11-17T23:59:18.338Z,23.50
